createdAt,value
2018-12-12T00:00:53.380Z,1013.91
2018-12-12T00:01:53.370Z,1013.93
2018-12-12T00:02:53.360Z,1013.93
2018-12-12T00:03:53.348Z,1013.98
2018-12-12T00:04:53.348Z,1013.98
2018-12-12T00:05:53.326Z,1013.99
2018-12-12T00:06:53.316Z,1014.02
2018-12-12T00:07:53.303Z,1014.01
2018-12-12T00:08:53.292Z,1014.04
2018-12-12T00:09:53.317Z,1014.02
2018-12-12T00:10:53.289Z,1014.00
2018-12-12T00:11:53.297Z,1014.04
2018-12-12T00:12:53.249Z,1014.01
2018-12-12T00:13:53.235Z,1013.98
2018-12-12T00:14:53.226Z,1013.99
2018-12-12T00:15:53.253Z,1014.00
2018-12-12T00:16:53.202Z,1014.02
2018-12-12T00:17:53.195Z,1014.03
2018-12-12T00:18:53.182Z,1013.94
2018-12-12T00:19:53.169Z,1014.03
2018-12-12T00:20:53.182Z,1014.01
2018-12-12T00:21:53.161Z,1014.09
2018-12-12T00:22:53.134Z,1014.06
2018-12-12T00:23:53.127Z,1014.00
2018-12-12T00:24:53.118Z,1014.06
2018-12-12T00:25:53.105Z,1014.00
2018-12-12T00:26:53.137Z,1014.03
2018-12-12T00:27:53.080Z,1014.07
2018-12-12T00:28:53.078Z,1014.05
2018-12-12T00:29:53.088Z,1014.06
2018-12-12T00:30:53.049Z,1014.03
2018-12-12T00:31:53.039Z,1014.04
2018-12-12T00:32:53.077Z,1014.06
2018-12-12T00:33:53.016Z,1014.05
2018-12-12T00:34:53.005Z,1014.05
2018-12-12T00:35:53.023Z,1014.06
2018-12-12T00:36:52.980Z,1014.07
2018-12-12T00:37:52.973Z,1014.09
2018-12-12T00:38:52.971Z,1014.09
2018-12-12T00:39:52.947Z,1014.07
2018-12-12T00:40:52.939Z,1014.08
2018-12-12T00:41:52.927Z,1014.13
2018-12-12T00:42:52.930Z,1014.14
2018-12-12T00:43:52.937Z,1014.07
2018-12-12T00:44:52.893Z,1014.10
2018-12-12T00:45:52.884Z,1014.11
2018-12-12T00:46:52.875Z,1014.10
2018-12-12T00:47:52.860Z,1014.14
2018-12-12T00:48:52.847Z,1014.10
2018-12-12T00:49:52.879Z,1014.12
2018-12-12T00:50:52.862Z,1014.11
2018-12-12T00:51:52.815Z,1014.12
2018-12-12T00:52:52.806Z,1014.14
2018-12-12T00:53:52.794Z,1014.17
2018-12-12T00:54:52.781Z,1014.18
2018-12-12T00:55:52.863Z,1014.19
2018-12-12T00:56:52.765Z,1014.24
2018-12-12T00:59:43.233Z,1014.24
2018-12-12T01:00:06.929Z,1014.21
2018-12-12T01:01:06.966Z,1014.24
2018-12-12T01:02:06.909Z,1014.27
2018-12-12T01:03:06.901Z,1014.22
2018-12-12T01:04:06.884Z,1014.25
2018-12-12T01:05:06.876Z,1014.22
2018-12-12T01:06:06.863Z,1014.23
2018-12-12T01:07:06.900Z,1014.25
2018-12-12T01:08:06.843Z,1014.23
2018-12-12T01:09:06.828Z,1014.22
2018-12-12T01:10:06.819Z,1014.21
2018-12-12T01:11:06.806Z,1014.21
2018-12-12T01:12:06.802Z,1014.20
2018-12-12T01:13:06.836Z,1014.18
2018-12-12T01:14:06.774Z,1014.22
2018-12-12T01:15:06.764Z,1014.22
2018-12-12T01:16:06.752Z,1014.27
2018-12-12T01:17:06.741Z,1014.24
2018-12-12T01:18:06.733Z,1014.23
2018-12-12T01:19:06.772Z,1014.23
2018-12-12T01:20:06.711Z,1014.25
2018-12-12T01:21:06.698Z,1014.23
2018-12-12T01:22:06.686Z,1014.27
2018-12-12T01:23:06.674Z,1014.32
2018-12-12T01:24:06.671Z,1014.31
2018-12-12T01:25:06.695Z,1014.32
2018-12-12T01:26:06.643Z,1014.34
2018-12-12T01:27:06.630Z,1014.36
2018-12-12T01:28:06.620Z,1014.35
2018-12-12T01:29:06.606Z,1014.37
2018-12-12T01:30:06.596Z,1014.38
2018-12-12T01:31:06.636Z,1014.36
2018-12-12T01:32:06.575Z,1014.39
2018-12-12T01:33:06.562Z,1014.41
2018-12-12T01:34:06.551Z,1014.38
2018-12-12T01:35:06.542Z,1014.41
2018-12-12T01:36:06.532Z,1014.39
2018-12-12T01:37:06.542Z,1014.41
2018-12-12T01:38:06.509Z,1014.43
2018-12-12T01:39:06.495Z,1014.42
2018-12-12T01:40:06.486Z,1014.47
2018-12-12T01:41:06.474Z,1014.42
2018-12-12T01:42:06.487Z,1014.46
2018-12-12T01:43:06.456Z,1014.39
2018-12-12T01:44:06.447Z,1014.46
2018-12-12T01:45:06.440Z,1014.46
2018-12-12T01:46:06.418Z,1014.49
2018-12-12T01:47:06.407Z,1014.52
2018-12-12T01:48:06.410Z,1014.52
2018-12-12T01:49:06.384Z,1014.54
2018-12-12T01:50:06.387Z,1014.53
2018-12-12T01:51:06.364Z,1014.55
2018-12-12T01:52:06.353Z,1014.57
2018-12-12T01:53:06.374Z,1014.57
2018-12-12T01:54:06.329Z,1014.56
2018-12-12T01:55:06.318Z,1014.61
2018-12-12T01:56:06.314Z,1014.62
2018-12-12T01:57:06.300Z,1014.58
2018-12-12T01:58:06.342Z,1014.55
2018-12-12T01:59:06.308Z,1014.56
2018-12-12T02:00:06.265Z,1014.57
2018-12-12T02:01:06.256Z,1014.55
2018-12-12T02:02:06.251Z,1014.56
2018-12-12T02:03:06.229Z,1014.56
2018-12-12T02:04:06.220Z,1014.59
2018-12-12T02:05:06.243Z,1014.56
2018-12-12T02:06:06.198Z,1014.59
2018-12-12T02:07:06.186Z,1014.60
2018-12-12T02:08:06.183Z,1014.59
2018-12-12T02:09:06.164Z,1014.62
2018-12-12T02:10:06.153Z,1014.64
2018-12-12T02:11:06.180Z,1014.65
2018-12-12T02:12:06.130Z,1014.64
2018-12-12T02:13:06.117Z,1014.69
2018-12-12T02:14:06.116Z,1014.65
2018-12-12T02:15:06.098Z,1014.67
2018-12-12T02:16:06.085Z,1014.67
2018-12-12T02:17:06.114Z,1014.70
2018-12-12T02:18:06.062Z,1014.68
2018-12-12T02:19:06.052Z,1014.69
2018-12-12T02:20:06.048Z,1014.65
2018-12-12T02:21:06.033Z,1014.66
2018-12-12T02:22:06.026Z,1014.74
2018-12-12T02:23:06.046Z,1014.76
2018-12-12T02:24:05.997Z,1014.72
2018-12-12T02:25:05.985Z,1014.73
2018-12-12T02:26:05.981Z,1014.73
2018-12-12T02:27:05.965Z,1014.76
2018-12-12T02:28:05.953Z,1014.73
2018-12-12T02:29:05.963Z,1014.75
2018-12-12T02:30:05.934Z,1014.73
2018-12-12T02:31:06.005Z,1014.73
2018-12-12T02:32:05.913Z,1014.76
2018-12-12T02:33:05.898Z,1014.77
2018-12-12T02:34:05.886Z,1014.75
2018-12-12T02:35:05.904Z,1014.76
2018-12-12T02:36:05.866Z,1014.76
2018-12-12T02:37:05.856Z,1014.76
2018-12-12T02:38:05.854Z,1014.78
2018-12-12T02:39:05.829Z,1014.76
2018-12-12T02:40:05.818Z,1014.73
2018-12-12T02:41:05.821Z,1014.77
2018-12-12T02:42:05.798Z,1014.76
2018-12-12T02:43:05.785Z,1014.79
2018-12-12T02:44:05.782Z,1014.79
2018-12-12T02:45:05.766Z,1014.82
2018-12-12T02:46:05.767Z,1014.80
2018-12-12T02:47:05.741Z,1014.78
2018-12-12T02:48:05.731Z,1014.79
2018-12-12T02:49:05.720Z,1014.84
2018-12-12T02:50:05.749Z,1014.86
2018-12-12T02:51:05.699Z,1014.87
2018-12-12T02:52:05.686Z,1014.87
2018-12-12T02:53:05.676Z,1014.86
2018-12-12T02:54:05.666Z,1014.87
2018-12-12T02:55:05.655Z,1014.96
2018-12-12T02:56:05.688Z,1014.92
2018-12-12T02:57:05.636Z,1014.91
2018-12-12T02:58:05.620Z,1014.91
2018-12-12T02:59:05.608Z,1014.91
2018-12-12T03:00:05.605Z,1014.90
2018-12-12T03:01:05.585Z,1014.92
2018-12-12T03:02:05.596Z,1014.88
2018-12-12T03:03:05.567Z,1014.87
2018-12-12T03:04:05.554Z,1014.87
2018-12-12T03:05:05.544Z,1014.89
2018-12-12T03:06:05.530Z,1014.92
2018-12-12T03:07:05.536Z,1014.84
2018-12-12T03:08:05.515Z,1014.92
2018-12-12T03:09:05.501Z,1014.92
2018-12-12T03:10:05.497Z,1014.91
2018-12-12T03:11:05.475Z,1014.98
2018-12-12T03:12:05.490Z,1014.98
2018-12-12T03:13:05.454Z,1014.94
2018-12-12T03:14:05.444Z,1014.98
2018-12-12T03:15:05.432Z,1014.92
2018-12-12T03:16:05.433Z,1014.92
2018-12-12T03:17:05.414Z,1014.90
2018-12-12T03:18:05.410Z,1014.92
2018-12-12T03:19:05.386Z,1014.87
2018-12-12T03:20:05.375Z,1014.96
2018-12-12T03:21:05.366Z,1015.02
2018-12-12T03:22:05.385Z,1014.98
2018-12-12T03:23:05.353Z,1015.01
2018-12-12T03:24:05.338Z,1015.03
2018-12-12T03:25:05.322Z,1015.03
2018-12-12T03:26:05.310Z,1015.02
2018-12-12T03:27:05.300Z,1015.05
2018-12-12T03:28:05.325Z,1015.02
2018-12-12T03:29:05.277Z,1015.01
2018-12-12T03:30:05.276Z,1015.05
2018-12-12T03:31:05.256Z,1015.08
2018-12-12T03:32:05.252Z,1015.06
2018-12-12T03:33:05.239Z,1015.10
2018-12-12T03:34:05.237Z,1015.10
2018-12-12T03:35:05.209Z,1015.08
2018-12-12T03:36:05.224Z,1015.11
2018-12-12T03:37:05.188Z,1015.16
2018-12-12T03:38:05.202Z,1015.18
2018-12-12T03:39:05.188Z,1015.18
2018-12-12T03:40:05.154Z,1015.22
2018-12-12T03:41:05.149Z,1015.23
2018-12-12T03:42:05.132Z,1015.25
2018-12-12T03:43:05.125Z,1015.21
2018-12-12T03:44:05.145Z,1015.27
2018-12-12T03:45:05.132Z,1015.25
2018-12-12T03:46:05.089Z,1015.23
2018-12-12T03:47:05.075Z,1015.23
2018-12-12T03:48:05.066Z,1015.30
2018-12-12T03:49:05.055Z,1015.28
2018-12-12T03:50:05.083Z,1015.29
2018-12-12T03:51:05.032Z,1015.29
2018-12-12T03:52:05.044Z,1015.24
2018-12-12T03:53:05.010Z,1015.25
2018-12-12T03:54:05.005Z,1015.24
2018-12-12T03:55:04.989Z,1015.27
2018-12-12T03:56:05.026Z,1015.26
2018-12-12T03:57:04.972Z,1015.27
2018-12-12T03:58:04.962Z,1015.29
2018-12-12T03:59:04.943Z,1015.29
2018-12-12T04:00:04.939Z,1015.28
2018-12-12T04:01:04.933Z,1015.26
2018-12-12T04:02:04.927Z,1015.34
2018-12-12T04:03:04.898Z,1015.34
2018-12-12T04:04:04.894Z,1015.33
2018-12-12T04:05:04.889Z,1015.32
2018-12-12T04:06:04.864Z,1015.35
2018-12-12T04:07:04.870Z,1015.39
2018-12-12T04:08:04.878Z,1015.31
2018-12-12T04:09:04.833Z,1015.35
2018-12-12T04:10:04.824Z,1015.33
2018-12-12T04:11:04.817Z,1015.33
2018-12-12T04:12:04.865Z,1015.31
2018-12-12T04:13:04.791Z,1015.36
2018-12-12T04:14:04.778Z,1015.34
2018-12-12T04:15:04.766Z,1015.36
2018-12-12T04:16:04.772Z,1015.40
2018-12-12T04:17:04.745Z,1015.35
2018-12-12T04:18:04.751Z,1015.39
2018-12-12T04:19:04.758Z,1015.31
2018-12-12T04:20:04.715Z,1015.35
2018-12-12T04:21:04.701Z,1015.37
2018-12-12T04:22:04.712Z,1015.37
2018-12-12T04:23:04.892Z,1015.36
2018-12-12T04:24:04.669Z,1015.36
2018-12-12T04:25:04.671Z,1015.30
2018-12-12T04:26:04.653Z,1015.35
2018-12-12T04:27:04.635Z,1015.39
2018-12-12T04:28:04.626Z,1015.36
2018-12-12T04:29:04.620Z,1015.36
2018-12-12T04:30:04.614Z,1015.34
2018-12-12T04:31:04.595Z,1015.34
2018-12-12T04:32:04.577Z,1015.33
2018-12-12T04:33:04.566Z,1015.40
2018-12-12T04:34:04.558Z,1015.38
2018-12-12T04:35:04.558Z,1015.41
2018-12-12T04:36:04.533Z,1015.38
2018-12-12T04:37:04.534Z,1015.40
2018-12-12T04:38:04.511Z,1015.39
2018-12-12T04:39:04.501Z,1015.39
2018-12-12T04:40:04.536Z,1015.40
2018-12-12T04:41:04.481Z,1015.35
2018-12-12T04:42:04.476Z,1015.35
2018-12-12T04:43:04.462Z,1015.41
2018-12-12T04:44:04.444Z,1015.41
2018-12-12T04:45:04.434Z,1015.42
2018-12-12T04:46:04.434Z,1015.45
2018-12-12T04:47:04.412Z,1015.43
2018-12-12T04:48:04.399Z,1015.35
2018-12-12T04:49:04.394Z,1015.40
2018-12-12T04:50:04.383Z,1015.37
2018-12-12T04:51:04.379Z,1015.35
2018-12-12T04:52:04.355Z,1015.39
2018-12-12T04:53:04.344Z,1015.39
2018-12-12T04:54:04.334Z,1015.39
2018-12-12T04:55:04.324Z,1015.37
2018-12-12T04:56:04.352Z,1015.42
2018-12-12T04:57:04.300Z,1015.45
2018-12-12T04:58:04.290Z,1015.41
2018-12-12T04:59:04.278Z,1015.41
2018-12-12T05:00:04.267Z,1015.40
2018-12-12T05:01:04.257Z,1015.37
2018-12-12T05:02:04.294Z,1015.32
2018-12-12T05:03:04.234Z,1015.37
2018-12-12T05:04:04.223Z,1015.40
2018-12-12T05:05:04.210Z,1015.36
2018-12-12T05:06:04.201Z,1015.37
2018-12-12T05:07:04.190Z,1015.40
2018-12-12T05:08:04.212Z,1015.38
2018-12-12T05:09:04.175Z,1015.42
2018-12-12T05:10:04.156Z,1015.40
2018-12-12T05:11:04.144Z,1015.39
2018-12-12T05:12:04.133Z,1015.34
2018-12-12T05:13:04.122Z,1015.40
2018-12-12T05:14:04.133Z,1015.43
2018-12-12T05:15:04.105Z,1015.39
2018-12-12T05:16:04.091Z,1015.43
2018-12-12T05:17:04.079Z,1015.43
2018-12-12T05:18:04.100Z,1015.44
2018-12-12T05:19:04.059Z,1015.45
2018-12-12T05:20:04.053Z,1015.45
2018-12-12T05:21:04.034Z,1015.45
2018-12-12T05:22:04.024Z,1015.53
2018-12-12T05:23:04.012Z,1015.49
2018-12-12T05:24:04.032Z,1015.50
2018-12-12T05:25:03.990Z,1015.48
2018-12-12T05:26:03.993Z,1015.58
2018-12-12T05:27:03.968Z,1015.53
2018-12-12T05:28:03.957Z,1015.51
2018-12-12T05:29:03.949Z,1015.55
2018-12-12T05:30:03.970Z,1015.59
2018-12-12T05:31:03.924Z,1015.61
2018-12-12T05:32:03.920Z,1015.66
2018-12-12T05:33:03.903Z,1015.60
2018-12-12T05:34:03.890Z,1015.65
2018-12-12T05:35:03.883Z,1015.64
2018-12-12T05:36:03.907Z,1015.66
2018-12-12T05:37:03.857Z,1015.66
2018-12-12T05:38:03.852Z,1015.68
2018-12-12T05:39:03.836Z,1015.59
2018-12-12T05:40:03.825Z,1015.60
2018-12-12T05:41:03.813Z,1015.65
2018-12-12T05:42:03.835Z,1015.65
2018-12-12T05:43:03.793Z,1015.69
2018-12-12T05:44:03.782Z,1015.68
2018-12-12T05:45:03.770Z,1015.70
2018-12-12T05:46:03.758Z,1015.69
2018-12-12T05:47:03.749Z,1015.69
2018-12-12T05:48:03.750Z,1015.66
2018-12-12T05:49:03.723Z,1015.71
2018-12-12T05:50:03.720Z,1015.69
2018-12-12T05:51:03.703Z,1015.65
2018-12-12T05:52:03.731Z,1015.70
2018-12-12T05:53:03.680Z,1015.71
2018-12-12T05:54:03.670Z,1015.71
2018-12-12T05:55:03.657Z,1015.72
2018-12-12T05:56:03.656Z,1015.73
2018-12-12T05:57:03.637Z,1015.77
2018-12-12T05:58:03.638Z,1015.75
2018-12-12T05:59:03.613Z,1015.75
2018-12-12T06:00:03.601Z,1015.76
2018-12-12T06:01:03.596Z,1015.79
2018-12-12T06:02:03.584Z,1015.77
2018-12-12T06:03:03.592Z,1015.75
2018-12-12T06:04:03.560Z,1015.77
2018-12-12T06:05:03.550Z,1015.74
2018-12-12T06:06:03.539Z,1015.76
2018-12-12T06:07:03.527Z,1015.80
2018-12-12T06:08:03.522Z,1015.79
2018-12-12T06:09:03.516Z,1015.80
2018-12-12T06:10:03.525Z,1015.80
2018-12-12T06:11:03.481Z,1015.81
2018-12-12T06:12:03.470Z,1015.80
2018-12-12T06:13:03.462Z,1015.82
2018-12-12T06:14:03.460Z,1015.79
2018-12-12T06:15:03.438Z,1015.81
2018-12-12T06:16:03.459Z,1015.84
2018-12-12T06:17:03.416Z,1015.82
2018-12-12T06:18:04.618Z,1015.90
2018-12-12T06:19:03.394Z,1015.87
2018-12-12T06:20:03.390Z,1015.89
2018-12-12T06:21:03.371Z,1015.91
2018-12-12T06:22:03.489Z,1015.90
2018-12-12T06:23:03.348Z,1015.91
2018-12-12T06:24:03.339Z,1015.97
2018-12-12T06:25:03.328Z,1015.92
2018-12-12T06:26:03.326Z,1015.97
2018-12-12T06:27:03.304Z,1015.95
2018-12-12T06:28:03.306Z,1016.02
2018-12-12T06:29:03.285Z,1016.01
2018-12-12T06:30:03.271Z,1016.03
2018-12-12T06:31:03.292Z,1015.99
2018-12-12T06:32:03.254Z,1015.96
2018-12-12T06:33:03.252Z,1015.98
2018-12-12T06:34:03.227Z,1015.95
2018-12-12T06:35:03.215Z,1016.01
2018-12-12T06:36:03.207Z,1015.99
2018-12-12T06:37:03.208Z,1016.04
2018-12-12T06:38:03.182Z,1016.01
2018-12-12T06:39:03.181Z,1016.02
2018-12-12T06:40:03.161Z,1016.03
2018-12-12T06:41:03.151Z,1016.05
2018-12-12T06:42:03.151Z,1016.05
2018-12-12T06:43:03.126Z,1016.05
2018-12-12T06:44:03.115Z,1016.06
2018-12-12T06:45:03.116Z,1016.04
2018-12-12T06:46:03.100Z,1016.08
2018-12-12T06:47:03.113Z,1016.10
2018-12-12T06:48:03.072Z,1016.05
2018-12-12T06:49:03.061Z,1016.07
2018-12-12T06:50:03.050Z,1016.13
2018-12-12T06:51:03.048Z,1016.11
2018-12-12T06:52:03.033Z,1016.14
2018-12-12T06:53:03.039Z,1016.11
2018-12-12T06:54:03.006Z,1016.12
2018-12-12T06:55:02.995Z,1016.12
2018-12-12T06:56:02.982Z,1016.10
2018-12-12T06:57:02.971Z,1016.16
2018-12-12T06:58:02.966Z,1016.19
2018-12-12T06:59:02.985Z,1016.21
2018-12-12T07:00:02.939Z,1016.26
2018-12-12T07:01:02.927Z,1016.29
2018-12-12T07:02:02.916Z,1016.28
2018-12-12T07:03:02.903Z,1016.25
2018-12-12T07:04:02.897Z,1016.26
2018-12-12T07:05:02.898Z,1016.29
2018-12-12T07:06:02.872Z,1016.27
2018-12-12T07:07:02.861Z,1016.28
2018-12-12T07:08:02.882Z,1016.29
2018-12-12T07:09:02.839Z,1016.30
2018-12-12T07:10:02.826Z,1016.29
2018-12-12T07:11:02.829Z,1016.32
2018-12-12T07:12:02.812Z,1016.34
2018-12-12T07:13:02.796Z,1016.36
2018-12-12T07:14:02.796Z,1016.38
2018-12-12T07:15:02.784Z,1016.34
2018-12-12T07:16:02.774Z,1016.38
2018-12-12T07:17:02.770Z,1016.37
2018-12-12T07:18:02.743Z,1016.36
2018-12-12T07:19:02.730Z,1016.37
2018-12-12T07:20:02.757Z,1016.36
2018-12-12T07:21:02.706Z,1016.41
2018-12-12T07:22:02.696Z,1016.36
2018-12-12T07:23:02.684Z,1016.40
2018-12-12T07:24:02.671Z,1016.41
2018-12-12T07:25:02.670Z,1016.37
2018-12-12T07:26:02.662Z,1016.42
2018-12-12T07:27:02.639Z,1016.40
2018-12-12T07:28:02.629Z,1016.39
2018-12-12T07:29:02.619Z,1016.37
2018-12-12T07:30:02.606Z,1016.40
2018-12-12T07:31:02.615Z,1016.42
2018-12-12T07:32:02.608Z,1016.45
2018-12-12T07:33:02.574Z,1016.44
2018-12-12T07:34:02.567Z,1016.47
2018-12-12T07:35:02.551Z,1016.46
2018-12-12T07:36:02.540Z,1016.46
2018-12-12T07:37:02.538Z,1016.48
2018-12-12T07:38:02.529Z,1016.47
2018-12-12T07:39:02.505Z,1016.50
2018-12-12T07:40:02.496Z,1016.52
2018-12-12T07:41:02.483Z,1016.51
2018-12-12T07:42:02.618Z,1016.56
2018-12-12T07:43:02.469Z,1016.59
2018-12-12T07:44:02.451Z,1016.58
2018-12-12T07:45:02.441Z,1016.59
2018-12-12T07:46:02.429Z,1016.60
2018-12-12T07:47:02.418Z,1016.63
2018-12-12T07:48:02.453Z,1016.60
2018-12-12T07:49:02.400Z,1016.62
2018-12-12T07:50:02.386Z,1016.61
2018-12-12T07:51:02.376Z,1016.59
2018-12-12T07:52:02.362Z,1016.62
2018-12-12T07:53:02.351Z,1016.63
2018-12-12T07:54:02.363Z,1016.65
2018-12-12T07:55:02.332Z,1016.65
2018-12-12T07:56:02.325Z,1016.61
2018-12-12T07:57:02.306Z,1016.61
2018-12-12T07:58:02.296Z,1016.65
2018-12-12T07:59:02.296Z,1016.64
2018-12-12T08:00:02.285Z,1016.67
2018-12-12T08:01:02.728Z,1016.68
2018-12-12T08:02:02.251Z,1016.67
2018-12-12T08:03:06.269Z,1016.70
2018-12-12T08:04:02.230Z,1016.70
2018-12-12T08:05:02.219Z,1016.64
2018-12-12T08:06:02.205Z,1016.70
2018-12-12T08:07:02.222Z,1016.67
2018-12-12T08:08:02.188Z,1016.69
2018-12-12T08:09:02.226Z,1016.67
2018-12-12T08:10:02.163Z,1016.72
2018-12-12T08:11:02.151Z,1016.75
2018-12-12T08:12:02.153Z,1016.73
2018-12-12T08:13:02.134Z,1016.71
2018-12-12T08:14:02.119Z,1016.73
2018-12-12T08:15:02.105Z,1016.79
2018-12-12T08:16:02.094Z,1016.81
2018-12-12T08:17:02.097Z,1016.83
2018-12-12T08:18:02.108Z,1016.84
2018-12-12T08:19:02.070Z,1016.83
2018-12-12T08:20:02.050Z,1016.82
2018-12-12T08:21:02.042Z,1016.84
2018-12-12T08:22:02.030Z,1016.83
2018-12-12T08:23:02.016Z,1016.82
2018-12-12T08:24:02.048Z,1016.81
2018-12-12T08:25:02.001Z,1016.87
2018-12-12T08:26:01.986Z,1016.80
2018-12-12T08:27:01.973Z,1016.85
2018-12-12T08:28:01.962Z,1016.87
2018-12-12T08:29:01.954Z,1016.84
2018-12-12T08:30:01.954Z,1016.87
2018-12-12T08:31:01.939Z,1016.86
2018-12-12T08:32:01.926Z,1016.84
2018-12-12T08:33:01.913Z,1016.86
2018-12-12T08:34:01.895Z,1016.88
2018-12-12T08:35:01.898Z,1016.90
2018-12-12T08:36:01.906Z,1016.93
2018-12-12T08:37:01.862Z,1016.90
2018-12-12T08:38:01.850Z,1016.92
2018-12-12T08:39:01.871Z,1016.90
2018-12-12T08:40:01.829Z,1016.89
2018-12-12T08:41:01.816Z,1016.94
2018-12-12T08:42:01.815Z,1016.92
2018-12-12T08:43:01.796Z,1016.92
2018-12-12T08:44:01.784Z,1016.96
2018-12-12T08:45:01.778Z,1016.97
2018-12-12T08:46:01.765Z,1016.96
2018-12-12T08:47:01.766Z,1016.97
2018-12-12T08:48:01.739Z,1016.99
2018-12-12T08:49:01.727Z,1016.99
2018-12-12T08:50:01.715Z,1017.01
2018-12-12T08:51:01.703Z,1017.01
2018-12-12T08:52:01.739Z,1017.01
2018-12-12T08:53:01.696Z,1017.04
2018-12-12T08:54:01.672Z,1017.07
2018-12-12T08:55:01.659Z,1017.05
2018-12-12T08:56:01.650Z,1017.07
2018-12-12T08:57:01.639Z,1017.06
2018-12-12T08:58:01.640Z,1017.08
2018-12-12T08:59:01.622Z,1017.02
2018-12-12T09:00:01.650Z,1017.08
2018-12-12T09:01:01.593Z,1017.09
2018-12-12T09:02:01.581Z,1017.06
2018-12-12T09:03:01.571Z,1017.08
2018-12-12T09:04:01.561Z,1017.05
2018-12-12T09:05:01.554Z,1017.05
2018-12-12T09:06:01.553Z,1017.05
2018-12-12T09:07:01.527Z,1017.07
2018-12-12T09:08:01.515Z,1017.10
2018-12-12T09:09:01.506Z,1017.07
2018-12-12T09:10:01.530Z,1017.08
2018-12-12T09:11:01.490Z,1017.06
2018-12-12T09:12:01.472Z,1017.11
2018-12-12T09:13:01.460Z,1017.10
2018-12-12T09:14:01.450Z,1017.09
2018-12-12T09:15:01.439Z,1017.11
2018-12-12T09:16:01.439Z,1017.09
2018-12-12T09:17:01.420Z,1017.11
2018-12-12T09:18:01.407Z,1017.09
2018-12-12T09:19:01.401Z,1017.13
2018-12-12T09:20:01.386Z,1017.11
2018-12-12T09:21:01.385Z,1017.11
2018-12-12T09:22:01.375Z,1017.12
2018-12-12T09:23:01.348Z,1017.13
2018-12-12T09:24:01.337Z,1017.09
2018-12-12T09:25:01.334Z,1017.10
2018-12-12T09:26:01.315Z,1017.09
2018-12-12T09:27:01.318Z,1017.10
2018-12-12T09:28:01.309Z,1017.09
2018-12-12T09:29:01.282Z,1017.06
2018-12-12T09:30:01.270Z,1017.06
2018-12-12T09:31:01.265Z,1017.08
2018-12-12T09:32:01.246Z,1017.07
2018-12-12T09:33:01.251Z,1017.11
2018-12-12T09:34:01.261Z,1017.13
2018-12-12T09:35:01.215Z,1017.11
2018-12-12T09:36:01.205Z,1017.12
2018-12-12T09:37:01.201Z,1017.12
2018-12-12T09:38:01.182Z,1017.11
2018-12-12T09:39:01.171Z,1017.14
2018-12-12T09:40:01.185Z,1017.17
2018-12-12T09:41:01.148Z,1017.18
2018-12-12T09:42:01.135Z,1017.18
2018-12-12T09:43:01.132Z,1017.16
2018-12-12T09:44:01.115Z,1017.15
2018-12-12T09:45:01.105Z,1017.15
2018-12-12T09:46:01.137Z,1017.20
2018-12-12T09:47:01.088Z,1017.17
2018-12-12T09:48:01.070Z,1017.22
2018-12-12T09:49:01.066Z,1017.18
2018-12-12T09:50:01.053Z,1017.21
2018-12-12T09:51:07.046Z,1017.18
2018-12-12T09:52:02.073Z,1017.16
2018-12-12T09:53:01.017Z,1017.14
2018-12-12T09:54:01.003Z,1017.15
2018-12-12T09:55:00.993Z,1017.14
2018-12-12T09:56:00.991Z,1017.17
2018-12-12T09:57:00.971Z,1017.11
2018-12-12T09:58:00.984Z,1017.15
2018-12-12T09:59:00.949Z,1017.22
2018-12-12T10:00:00.938Z,1017.25
2018-12-12T10:01:00.929Z,1017.26
2018-12-12T10:02:00.925Z,1017.21
2018-12-12T10:03:00.904Z,1017.19
2018-12-12T10:04:00.930Z,1017.19
2018-12-12T10:05:00.882Z,1017.17
2018-12-12T10:06:00.872Z,1017.16
2018-12-12T10:07:00.860Z,1017.15
2018-12-12T10:08:00.853Z,1017.20
2018-12-12T10:09:00.836Z,1017.22
2018-12-12T10:10:00.848Z,1017.23
2018-12-12T10:11:00.813Z,1017.21
2018-12-12T10:12:00.807Z,1017.15
2018-12-12T10:13:00.790Z,1017.17
2018-12-12T10:14:00.785Z,1017.18
2018-12-12T10:15:00.779Z,1017.19
2018-12-12T10:16:00.772Z,1017.17
2018-12-12T10:17:00.750Z,1017.16
2018-12-12T10:18:00.736Z,1017.15
2018-12-12T10:19:00.726Z,1017.18
2018-12-12T10:20:00.728Z,1017.15
2018-12-12T10:21:00.716Z,1017.14
2018-12-12T10:22:00.693Z,1017.10
2018-12-12T10:23:00.697Z,1017.12
2018-12-12T10:24:00.672Z,1017.15
2018-12-12T10:25:00.676Z,1017.18
2018-12-12T10:26:00.661Z,1017.16
2018-12-12T10:27:00.644Z,1017.15
2018-12-12T10:28:00.631Z,1017.16
2018-12-12T10:29:00.621Z,1017.13
2018-12-12T10:30:00.622Z,1017.15
2018-12-12T10:31:00.601Z,1017.13
2018-12-12T10:32:00.592Z,1017.15
2018-12-12T10:33:00.574Z,1017.11
2018-12-12T10:34:00.561Z,1017.14
2018-12-12T10:35:00.562Z,1017.12
2018-12-12T10:36:00.537Z,1017.14
2018-12-12T10:37:00.536Z,1017.11
2018-12-12T10:38:00.517Z,1017.14
2018-12-12T10:39:00.506Z,1017.10
2018-12-12T10:40:00.505Z,1017.14
2018-12-12T10:41:00.480Z,1017.13
2018-12-12T10:42:00.472Z,1017.11
2018-12-12T10:43:00.465Z,1017.10
2018-12-12T10:44:00.449Z,1017.13
2018-12-12T10:45:00.450Z,1017.09
2018-12-12T10:46:00.425Z,1017.13
2018-12-12T10:47:00.429Z,1017.13
2018-12-12T10:48:00.405Z,1017.13
2018-12-12T10:49:00.399Z,1017.17
2018-12-12T10:50:00.401Z,1017.17
2018-12-12T10:51:00.370Z,1017.13
2018-12-12T10:52:00.358Z,1017.16
2018-12-12T10:53:00.363Z,1017.17
2018-12-12T10:54:00.335Z,1017.15
2018-12-12T10:55:00.450Z,1017.18
2018-12-12T10:56:00.321Z,1017.16
2018-12-12T10:57:00.303Z,1017.17
2018-12-12T10:58:00.293Z,1017.14
2018-12-12T10:59:00.282Z,1017.10
2018-12-12T11:00:00.271Z,1017.14
2018-12-12T11:01:00.290Z,1017.11
2018-12-12T11:02:00.254Z,1017.11
2018-12-12T11:03:00.235Z,1017.13
2018-12-12T11:04:00.225Z,1017.10
2018-12-12T11:05:00.218Z,1017.11
2018-12-12T11:06:00.204Z,1017.08
2018-12-12T11:07:00.205Z,1017.14
2018-12-12T11:08:00.195Z,1017.15
2018-12-12T11:09:00.170Z,1017.11
2018-12-12T11:10:00.159Z,1017.10
2018-12-12T11:11:00.163Z,1017.11
2018-12-12T11:12:00.135Z,1017.11
2018-12-12T11:13:00.125Z,1017.11
2018-12-12T11:14:00.116Z,1017.14
2018-12-12T11:15:00.102Z,1017.10
2018-12-12T11:16:00.105Z,1017.12
2018-12-12T11:17:00.093Z,1017.10
2018-12-12T11:18:00.069Z,1017.08
2018-12-12T11:19:00.059Z,1017.11
2018-12-12T11:20:00.053Z,1017.08
2018-12-12T11:21:00.051Z,1017.10
2018-12-12T11:22:00.065Z,1017.12
2018-12-12T11:23:00.015Z,1017.11
2018-12-12T11:24:00.004Z,1017.10
2018-12-12T11:24:59.991Z,1017.08
2018-12-12T11:25:59.981Z,1017.07
2018-12-12T11:26:59.978Z,1017.09
2018-12-12T11:27:59.971Z,1017.07
2018-12-12T11:28:59.947Z,1017.03
2018-12-12T11:29:59.937Z,1017.04
2018-12-12T11:30:59.953Z,1017.02
2018-12-12T11:31:59.915Z,1017.03
2018-12-12T11:32:59.906Z,1017.00
2018-12-12T11:33:59.896Z,1017.02
2018-12-12T11:34:59.886Z,1017.00
2018-12-12T11:35:59.876Z,1017.04
2018-12-12T11:36:59.902Z,1017.02
2018-12-12T11:37:59.849Z,1017.04
2018-12-12T11:38:59.836Z,1017.00
2018-12-12T11:39:59.829Z,1017.03
2018-12-12T11:40:59.814Z,1017.05
2018-12-12T11:41:59.819Z,1017.01
2018-12-12T11:42:59.837Z,1017.01
2018-12-12T11:43:59.781Z,1017.01
2018-12-12T11:44:59.804Z,1017.07
2018-12-12T11:45:59.761Z,1017.03
2018-12-12T11:46:59.748Z,1017.03
2018-12-12T11:47:59.745Z,1017.00
2018-12-12T11:48:59.727Z,1017.01
2018-12-12T11:49:59.716Z,1016.99
2018-12-12T11:50:59.731Z,1017.02
2018-12-12T11:51:59.691Z,1017.02
2018-12-12T11:52:59.681Z,1017.01
2018-12-12T11:53:59.676Z,1016.97
2018-12-12T11:54:59.667Z,1017.02
2018-12-12T11:55:59.646Z,1017.00
2018-12-12T11:56:59.649Z,1016.98
2018-12-12T11:57:59.626Z,1016.93
2018-12-12T11:58:59.614Z,1016.94
2018-12-12T11:59:59.602Z,1016.94
2018-12-12T12:00:59.594Z,1016.98
2018-12-12T12:01:59.621Z,1016.98
2018-12-12T12:02:59.577Z,1016.97
2018-12-12T12:03:59.557Z,1016.95
2018-12-12T12:04:59.548Z,1016.97
2018-12-12T12:05:59.535Z,1016.92
2018-12-12T12:06:59.524Z,1016.98